createdAt,value
2017-08-21T00:01:59.985Z,74.70
2017-08-21T00:04:27.540Z,75.70
2017-08-21T00:06:55.101Z,75.90
2017-08-21T00:09:22.633Z,74.70
2017-08-21T00:11:50.173Z,75.70
2017-08-21T00:14:17.741Z,75.70
2017-08-21T00:16:45.288Z,75.20
2017-08-21T00:19:14.561Z,74.30
2017-08-21T00:21:42.179Z,74.10
2017-08-21T00:24:09.713Z,74.00
2017-08-21T00:26:37.254Z,73.20
2017-08-21T00:29:04.853Z,72.40
2017-08-21T00:31:32.396Z,73.10
2017-08-21T00:33:59.937Z,73.20
2017-08-21T00:36:27.841Z,73.80
2017-08-21T00:39:25.948Z,72.10
2017-08-21T00:41:53.573Z,72.30
2017-08-21T00:44:21.117Z,72.00
2017-08-21T00:46:48.653Z,71.70
2017-08-21T00:49:16.429Z,71.50
2017-08-21T00:51:43.973Z,73.30
2017-08-21T00:54:11.499Z,73.60
2017-08-21T00:56:39.056Z,73.90
2017-08-21T00:59:06.601Z,74.10
2017-08-21T01:01:34.137Z,74.70
2017-08-21T01:04:01.742Z,75.30
2017-08-21T01:06:29.307Z,75.80
2017-08-21T01:08:56.852Z,75.90
2017-08-21T01:11:24.417Z,75.40
2017-08-21T01:13:51.952Z,75.60
2017-08-21T01:16:19.496Z,75.20
2017-08-21T01:18:47.057Z,74.60
2017-08-21T01:21:16.381Z,75.00
2017-08-21T01:23:43.917Z,74.80
2017-08-21T01:26:11.525Z,75.90
2017-08-21T01:28:39.066Z,76.50
2017-08-21T01:31:06.614Z,76.90
2017-08-21T01:33:34.377Z,76.70
2017-08-21T01:36:01.921Z,77.20
2017-08-21T01:38:29.472Z,77.20
2017-08-21T01:40:57.037Z,77.70
2017-08-21T01:43:24.580Z,77.90
2017-08-21T01:45:52.129Z,78.20
2017-08-21T01:48:19.751Z,78.30
2017-08-21T01:50:47.288Z,78.70
2017-08-21T01:53:16.407Z,78.80
2017-08-21T01:55:43.968Z,78.50
2017-08-21T01:58:11.516Z,78.60
2017-08-21T02:00:39.056Z,79.20
2017-08-21T02:03:06.625Z,79.40
2017-08-21T02:05:34.165Z,79.00
2017-08-21T02:08:01.704Z,79.40
2017-08-21T02:10:29.309Z,79.20
2017-08-21T02:12:56.844Z,79.10
2017-08-21T02:15:24.389Z,78.90
2017-08-21T02:17:51.969Z,78.90
2017-08-21T02:20:19.509Z,79.00
2017-08-21T02:22:47.048Z,79.00
2017-08-21T02:25:16.432Z,79.00
2017-08-21T02:27:43.973Z,79.30
2017-08-21T02:30:11.520Z,79.50
2017-08-21T02:32:39.877Z,79.40
2017-08-21T02:35:07.431Z,79.30
2017-08-21T02:37:34.977Z,78.70
2017-08-21T02:40:03.164Z,78.50
2017-08-21T02:42:30.700Z,78.50
2017-08-21T02:44:58.237Z,78.40
2017-08-21T02:47:25.805Z,78.80
2017-08-21T02:49:53.355Z,79.00
2017-08-21T02:52:20.908Z,79.20
2017-08-21T02:54:48.512Z,79.30
2017-08-21T02:57:16.414Z,80.40
2017-08-21T02:59:43.961Z,80.50
2017-08-21T03:02:11.536Z,80.20
2017-08-21T03:04:39.853Z,80.50
2017-08-21T03:07:07.400Z,80.50
2017-08-21T03:09:34.968Z,80.80
2017-08-21T03:12:02.513Z,80.40
2017-08-21T03:14:30.050Z,80.10
2017-08-21T03:16:58.409Z,79.00
2017-08-21T03:19:25.950Z,79.00
2017-08-21T03:21:53.489Z,79.60
2017-08-21T03:24:21.056Z,79.50
2017-08-21T03:26:48.617Z,79.50
2017-08-21T03:29:16.420Z,79.80
2017-08-21T03:31:43.992Z,79.50
2017-08-21T03:34:11.534Z,79.20
2017-08-21T03:36:39.077Z,78.80
2017-08-21T03:39:06.675Z,78.90
2017-08-21T03:41:34.553Z,78.70
2017-08-21T03:44:02.093Z,78.40
2017-08-21T03:46:29.713Z,78.10
2017-08-21T03:48:57.255Z,78.00
2017-08-21T03:51:24.793Z,77.10
2017-08-21T03:53:52.371Z,76.50
2017-08-21T03:56:19.920Z,76.70
2017-08-21T03:58:47.461Z,77.10
2017-08-21T04:01:16.593Z,76.70
2017-08-21T04:03:44.126Z,76.50
2017-08-21T04:06:11.669Z,76.10
2017-08-21T04:08:39.237Z,76.10
2017-08-21T04:11:06.782Z,76.00
2017-08-21T04:13:34.320Z,76.40
2017-08-21T04:16:01.880Z,76.20
2017-08-21T04:18:29.419Z,75.60
2017-08-21T04:20:56.971Z,75.50
2017-08-21T04:23:24.608Z,75.10
2017-08-21T04:25:52.156Z,75.20
2017-08-21T04:28:19.700Z,75.80
2017-08-21T04:30:47.259Z,76.50
2017-08-21T04:33:16.462Z,77.10
2017-08-21T04:35:44.005Z,77.70
2017-08-21T04:38:11.560Z,78.40
2017-08-21T04:40:39.104Z,78.60
2017-08-21T04:43:07.084Z,78.90
2017-08-21T04:45:34.677Z,79.30
2017-08-21T04:48:02.221Z,79.40
2017-08-21T04:50:29.760Z,79.20
2017-08-21T04:52:57.356Z,79.10
2017-08-21T04:55:24.900Z,78.70
2017-08-21T04:57:52.437Z,78.80
2017-08-21T05:00:20.024Z,78.40
2017-08-21T05:02:47.569Z,78.40
2017-08-21T05:05:16.468Z,78.10
2017-08-21T05:07:44.074Z,78.10
2017-08-21T05:10:11.617Z,77.70
2017-08-21T05:12:39.153Z,77.40
2017-08-21T05:15:06.726Z,77.70
2017-08-21T05:17:34.297Z,78.00
2017-08-21T05:20:02.611Z,76.10
2017-08-21T05:22:30.179Z,76.00
2017-08-21T05:24:57.726Z,75.00
2017-08-21T05:27:25.273Z,75.80
2017-08-21T05:29:52.869Z,75.60
2017-08-21T05:32:20.414Z,75.70
2017-08-21T05:34:47.957Z,75.60
2017-08-21T05:37:16.509Z,75.60
2017-08-21T05:39:44.049Z,74.80
2017-08-21T05:42:11.596Z,75.40
2017-08-21T05:44:39.177Z,75.70
2017-08-21T05:47:06.711Z,74.40
2017-08-21T05:49:34.256Z,74.50
2017-08-21T05:52:01.852Z,74.10
2017-08-21T05:54:29.397Z,73.20
2017-08-21T05:56:56.941Z,73.30
2017-08-21T05:59:24.549Z,73.10
2017-08-21T06:01:52.080Z,73.00
2017-08-21T06:04:19.617Z,73.40
2017-08-21T06:06:47.185Z,72.80
2017-08-21T06:09:16.406Z,72.30
2017-08-21T06:11:43.958Z,71.60
2017-08-21T06:14:11.544Z,71.30
2017-08-21T06:16:39.093Z,70.90
2017-08-21T06:19:06.637Z,70.90
2017-08-21T06:21:34.204Z,70.50
2017-08-21T06:24:01.744Z,69.30
2017-08-21T06:26:29.295Z,68.40
2017-08-21T06:28:56.872Z,69.20
2017-08-21T06:31:24.409Z,68.70
2017-08-21T06:33:51.950Z,68.30
2017-08-21T06:36:19.545Z,67.00
2017-08-21T06:38:47.089Z,64.50
2017-08-21T06:41:15.613Z,63.50
2017-08-21T06:43:43.185Z,62.90
2017-08-21T06:46:10.964Z,61.90
2017-08-21T06:48:38.505Z,61.20
2017-08-21T06:51:06.076Z,61.10
2017-08-21T06:53:33.616Z,59.60
2017-08-21T06:56:01.149Z,58.80
2017-08-21T06:58:28.776Z,59.30
2017-08-21T07:00:56.316Z,58.60
2017-08-21T07:03:23.857Z,55.20
2017-08-21T07:05:51.448Z,56.20
2017-08-21T07:08:19.021Z,57.00
2017-08-21T07:10:46.875Z,56.80
2017-08-21T07:13:25.843Z,53.50
2017-08-21T07:18:36.169Z,51.80
2017-08-21T07:21:03.745Z,51.20
2017-08-21T07:23:31.288Z,48.00
2017-08-21T07:25:59.621Z,50.10
2017-08-21T07:28:27.165Z,50.00
2017-08-21T07:30:54.708Z,47.80
2017-08-21T07:33:22.301Z,47.00
2017-08-21T07:35:49.964Z,47.20
2017-08-21T07:38:17.538Z,48.40
2017-08-21T07:40:45.165Z,46.90
2017-08-21T07:43:12.731Z,44.80
2017-08-21T07:45:40.271Z,45.50
2017-08-21T07:48:08.221Z,46.80
2017-08-21T07:50:35.760Z,46.30
2017-08-21T07:53:03.309Z,47.80
2017-08-21T07:55:30.923Z,46.20
2017-08-21T07:57:58.568Z,47.60
2017-08-21T08:00:26.272Z,48.90
2017-08-21T08:02:53.861Z,49.50
2017-08-21T08:05:21.484Z,49.60
2017-08-21T08:07:49.046Z,47.50
2017-08-21T08:10:16.687Z,47.70
2017-08-21T08:12:44.243Z,48.00
2017-08-21T08:15:11.780Z,48.60
2017-08-21T08:17:39.377Z,42.70
2017-08-21T08:20:06.917Z,42.70
2017-08-21T08:22:34.470Z,40.60
2017-08-21T08:25:02.085Z,39.50
2017-08-21T08:27:29.629Z,38.30
2017-08-21T08:29:57.177Z,34.60
2017-08-21T08:32:24.743Z,34.00
2017-08-21T08:34:52.284Z,35.20
2017-08-21T08:37:19.820Z,34.20
2017-08-21T08:39:47.531Z,34.20
2017-08-21T08:42:16.416Z,33.00
2017-08-21T08:44:43.997Z,31.30
2017-08-21T08:47:11.743Z,31.40
2017-08-21T08:49:39.563Z,32.20
2017-08-21T08:52:07.135Z,32.20
2017-08-21T08:54:34.723Z,30.10
2017-08-21T08:57:02.281Z,29.30
2017-08-21T08:59:29.887Z,28.40
2017-08-21T09:01:57.757Z,27.60
2017-08-21T09:04:25.309Z,26.50
2017-08-21T09:06:52.901Z,26.90
2017-08-21T09:09:20.529Z,24.80
2017-08-21T09:11:48.118Z,23.80
2017-08-21T09:14:16.417Z,23.80
2017-08-21T09:16:44.033Z,23.30
2017-08-21T09:19:11.612Z,21.90
2017-08-21T09:21:39.320Z,20.00
2017-08-21T09:24:07.042Z,21.00
2017-08-21T09:26:35.363Z,23.00
2017-08-21T09:29:03.333Z,22.90
2017-08-21T09:31:30.962Z,23.80
2017-08-21T09:33:58.569Z,21.70
2017-08-21T09:36:26.132Z,21.30
2017-08-21T09:38:53.768Z,21.10
2017-08-21T09:41:21.326Z,20.40
2017-08-21T09:43:48.932Z,21.50
2017-08-21T09:46:16.562Z,21.10
2017-08-21T09:48:44.161Z,21.80
2017-08-21T09:51:12.174Z,21.10
2017-08-21T09:53:39.840Z,19.80
2017-08-21T09:56:07.414Z,21.40
2017-08-21T09:58:34.964Z,19.80
2017-08-21T10:01:02.540Z,21.60
2017-08-21T10:03:31.345Z,23.10
2017-08-21T10:05:58.906Z,22.10
2017-08-21T10:08:26.478Z,22.60
2017-08-21T10:10:54.025Z,23.90
2017-08-21T10:13:21.654Z,23.20
2017-08-21T10:15:49.298Z,24.10
2017-08-21T10:18:16.899Z,24.90
2017-08-21T10:20:44.485Z,25.40
2017-08-21T10:23:12.126Z,26.50
2017-08-21T10:25:39.701Z,26.70
2017-08-21T10:28:07.863Z,27.80
2017-08-21T10:30:35.496Z,27.90
2017-08-21T10:33:03.073Z,27.40
2017-08-21T10:35:30.633Z,28.70
2017-08-21T10:37:58.282Z,29.80
2017-08-21T10:40:25.886Z,30.60
2017-08-21T10:42:53.445Z,33.00
2017-08-21T10:45:21.030Z,31.60
2017-08-21T10:47:48.581Z,32.60
2017-08-21T10:50:16.435Z,33.50
2017-08-21T10:52:44.688Z,32.50
2017-08-21T10:55:12.233Z,33.10
2017-08-21T10:57:39.814Z,33.30
2017-08-21T11:00:07.412Z,34.00
2017-08-21T11:02:34.965Z,34.00
2017-08-21T11:05:02.509Z,35.50
2017-08-21T11:07:30.093Z,33.50
2017-08-21T11:09:57.637Z,31.40
2017-08-21T11:12:25.182Z,33.50
2017-08-21T11:14:52.765Z,35.00
2017-08-21T11:17:20.309Z,33.30
2017-08-21T11:19:47.917Z,37.40
2017-08-21T11:22:15.920Z,36.20
2017-08-21T11:24:43.481Z,37.00
2017-08-21T11:27:11.022Z,37.20
2017-08-21T11:29:38.641Z,36.40
2017-08-21T11:32:06.185Z,37.90
2017-08-21T11:34:33.749Z,37.00
2017-08-21T11:37:01.338Z,34.90
2017-08-21T11:39:28.876Z,36.20
2017-08-21T11:41:56.413Z,36.70
2017-08-21T11:44:24.169Z,36.00
2017-08-21T11:46:51.719Z,35.20
2017-08-21T11:49:19.298Z,34.90
2017-08-21T11:51:46.862Z,35.30
2017-08-21T11:54:31.602Z,33.20
2017-08-21T12:00:45.342Z,33.30
2017-08-21T12:03:23.673Z,32.00
2017-08-21T12:11:36.239Z,31.90
2017-08-21T12:14:03.777Z,35.80
2017-08-21T12:16:31.324Z,35.20
2017-08-21T12:18:59.097Z,35.30
2017-08-21T12:21:26.634Z,33.70
2017-08-21T12:23:55.312Z,35.00
2017-08-21T12:26:22.881Z,36.90
2017-08-21T12:28:50.421Z,36.00
2017-08-21T12:31:17.974Z,35.80
2017-08-21T12:33:45.784Z,35.60
2017-08-21T12:36:24.249Z,33.90
2017-08-21T12:41:23.549Z,31.60
2017-08-21T12:43:51.128Z,34.60
2017-08-21T12:46:19.253Z,34.20
2017-08-21T12:48:46.837Z,35.30
2017-08-21T12:51:16.293Z,33.40
2017-08-21T12:53:43.852Z,34.70
2017-08-21T12:56:11.669Z,33.00
2017-08-21T12:58:39.231Z,37.10
2017-08-21T13:01:06.798Z,34.90
2017-08-21T13:03:34.418Z,32.80
2017-08-21T13:06:02.006Z,33.10
2017-08-21T13:08:29.617Z,34.50
2017-08-21T13:10:57.201Z,33.00
2017-08-21T13:13:24.761Z,33.80
2017-08-21T13:15:52.348Z,33.20
2017-08-21T13:18:19.945Z,34.20
2017-08-21T13:20:47.549Z,33.90
2017-08-21T13:23:16.533Z,34.00
2017-08-21T13:25:44.157Z,36.20
2017-08-21T13:28:12.619Z,36.70
2017-08-21T13:30:40.321Z,36.10
2017-08-21T13:33:07.905Z,37.10
2017-08-21T13:35:35.524Z,36.50
2017-08-21T13:38:03.081Z,35.00
2017-08-21T13:40:30.736Z,36.60
2017-08-21T13:42:58.321Z,35.30
2017-08-21T13:45:25.870Z,36.00
2017-08-21T13:47:53.490Z,35.60
2017-08-21T13:50:21.037Z,33.50
2017-08-21T13:52:48.625Z,35.60
2017-08-21T13:55:16.810Z,36.60
2017-08-21T13:57:44.871Z,38.00
2017-08-21T14:00:12.432Z,36.70
2017-08-21T14:02:40.056Z,34.70
2017-08-21T14:05:07.624Z,36.80
2017-08-21T14:07:35.179Z,33.90
2017-08-21T14:10:02.804Z,34.10
2017-08-21T14:12:30.402Z,36.40
2017-08-21T14:14:57.993Z,36.20
2017-08-21T14:17:25.593Z,34.20
2017-08-21T14:19:53.161Z,34.30
2017-08-21T14:22:20.761Z,35.20
2017-08-21T14:24:48.471Z,35.40
2017-08-21T14:27:16.420Z,36.00
2017-08-21T14:29:43.970Z,36.30
2017-08-21T14:32:11.614Z,35.60
2017-08-21T14:34:39.193Z,35.50
2017-08-21T14:37:06.775Z,36.70
2017-08-21T14:39:34.434Z,35.60
2017-08-21T14:42:02.025Z,35.20
2017-08-21T14:44:29.602Z,32.70
2017-08-21T14:46:57.414Z,34.30
2017-08-21T14:49:25.017Z,33.10
2017-08-21T14:51:52.602Z,34.60
2017-08-21T14:54:20.254Z,33.70
2017-08-21T14:56:47.836Z,35.30
2017-08-21T14:59:16.026Z,35.70
2017-08-21T15:01:43.614Z,36.00
2017-08-21T15:04:11.935Z,34.80
2017-08-21T15:06:39.519Z,34.70
2017-08-21T15:09:07.117Z,34.80
2017-08-21T15:11:34.681Z,35.00
2017-08-21T15:14:02.330Z,37.80
2017-08-21T15:16:29.971Z,37.20
2017-08-21T15:18:57.527Z,33.60
2017-08-21T15:21:25.082Z,33.60
2017-08-21T15:23:53.245Z,36.60
2017-08-21T15:26:20.797Z,36.70
2017-08-21T15:28:48.386Z,36.30
2017-08-21T15:31:16.432Z,37.10
2017-08-21T15:33:44.005Z,34.10
2017-08-21T15:36:11.546Z,35.20
2017-08-21T15:38:39.184Z,35.40
2017-08-21T15:41:06.744Z,34.80
2017-08-21T15:43:34.293Z,35.40
2017-08-21T15:46:01.861Z,37.60
2017-08-21T15:48:29.450Z,37.90
2017-08-21T15:50:56.996Z,37.50
2017-08-21T15:53:24.627Z,37.40
2017-08-21T15:55:52.197Z,37.40
2017-08-21T15:58:19.788Z,37.00
2017-08-21T16:00:47.907Z,37.10
2017-08-21T16:03:17.601Z,37.00
2017-08-21T16:05:45.160Z,36.60
2017-08-21T16:08:13.682Z,33.70
2017-08-21T16:10:41.269Z,36.90
2017-08-21T16:13:08.813Z,36.50
2017-08-21T16:15:36.386Z,36.90
2017-08-21T16:18:03.929Z,34.60
2017-08-21T16:20:31.489Z,36.20
2017-08-21T16:22:59.093Z,36.60
2017-08-21T16:25:26.869Z,34.50
2017-08-21T16:27:54.442Z,36.00
2017-08-21T16:30:22.036Z,37.90
2017-08-21T16:32:49.642Z,36.00
2017-08-21T16:35:17.207Z,37.50
2017-08-21T16:37:44.789Z,38.80
2017-08-21T16:40:12.452Z,38.80
2017-08-21T16:42:40.023Z,38.60
2017-08-21T16:45:07.646Z,38.80
2017-08-21T16:47:35.233Z,39.50
2017-08-21T16:50:02.786Z,41.60
2017-08-21T16:52:30.433Z,40.90
2017-08-21T16:54:57.983Z,40.60
2017-08-21T16:57:25.585Z,41.00
2017-08-21T16:59:54.022Z,41.00
2017-08-21T17:02:21.981Z,42.10
2017-08-21T17:04:49.534Z,42.30
2017-08-21T17:07:17.174Z,43.00
2017-08-21T17:09:45.850Z,43.80
2017-08-21T17:12:15.193Z,43.80
2017-08-21T17:14:42.775Z,44.50
2017-08-21T17:17:10.325Z,44.70
2017-08-21T17:19:37.867Z,44.00
2017-08-21T17:22:05.433Z,43.90
2017-08-21T17:24:32.984Z,44.10
2017-08-21T17:27:00.577Z,44.40
2017-08-21T17:29:28.210Z,44.50
2017-08-21T17:31:55.765Z,44.70
2017-08-21T17:34:23.324Z,44.70
2017-08-21T17:36:50.940Z,45.10
2017-08-21T17:39:18.505Z,44.90
2017-08-21T17:41:46.052Z,45.40
2017-08-21T17:44:14.603Z,46.10
2017-08-21T17:46:42.179Z,46.20
2017-08-21T17:49:09.735Z,46.30
2017-08-21T17:51:37.344Z,46.60
2017-08-21T17:54:04.888Z,47.40
2017-08-21T17:56:32.437Z,47.10
2017-08-21T17:59:00.030Z,48.00
2017-08-21T18:01:27.598Z,49.40
2017-08-21T18:03:55.485Z,48.70
2017-08-21T18:06:23.082Z,49.40
2017-08-21T18:08:50.653Z,50.20
2017-08-21T18:11:18.197Z,49.50
2017-08-21T18:13:45.888Z,49.40
2017-08-21T18:16:25.656Z,50.60
2017-08-21T18:23:32.682Z,50.00
2017-08-21T18:26:00.225Z,52.40
2017-08-21T18:28:27.821Z,51.80
2017-08-21T18:30:55.413Z,51.50
2017-08-21T18:33:22.962Z,52.80
2017-08-21T18:35:50.512Z,53.40
2017-08-21T18:38:18.078Z,53.50
2017-08-21T18:40:45.661Z,53.10
2017-08-21T18:43:24.603Z,54.00
2017-08-21T18:48:52.633Z,54.70
2017-08-21T18:51:20.239Z,55.50
2017-08-21T18:53:47.785Z,55.50
2017-08-21T18:56:16.492Z,56.20
2017-08-21T18:58:44.050Z,56.00
2017-08-21T19:01:11.604Z,56.60
2017-08-21T19:03:39.176Z,56.80
2017-08-21T19:06:07.069Z,57.60
2017-08-21T19:08:36.634Z,57.20
2017-08-21T19:11:04.261Z,58.10
2017-08-21T19:13:31.812Z,57.80
2017-08-21T19:15:59.511Z,57.20
2017-08-21T19:18:27.156Z,57.10
2017-08-21T19:20:54.739Z,57.80
2017-08-21T19:23:22.295Z,57.80
2017-08-21T19:25:49.860Z,58.00
2017-08-21T19:28:17.429Z,58.90
2017-08-21T19:30:45.001Z,58.50
2017-08-21T19:33:14.289Z,58.30
2017-08-21T19:35:41.984Z,58.30
2017-08-21T19:38:09.670Z,58.30
2017-08-21T19:40:37.711Z,59.00
2017-08-21T19:43:05.320Z,58.60
2017-08-21T19:45:32.947Z,59.50
2017-08-21T19:48:00.560Z,58.40
2017-08-21T19:50:28.153Z,57.90
2017-08-21T19:52:55.847Z,58.30
2017-08-21T19:55:23.483Z,58.70
2017-08-21T19:57:51.028Z,58.70
2017-08-21T20:00:18.577Z,58.50
2017-08-21T20:02:46.141Z,58.60
2017-08-21T20:05:16.304Z,57.90
2017-08-21T20:07:44.421Z,57.90
2017-08-21T20:10:11.985Z,58.80
2017-08-21T20:12:39.529Z,59.00
2017-08-21T20:15:07.068Z,59.30
2017-08-21T20:17:34.693Z,59.30
2017-08-21T20:20:02.237Z,60.00
2017-08-21T20:22:29.789Z,60.10
2017-08-21T20:24:57.365Z,60.30
2017-08-21T20:27:24.964Z,59.90
2017-08-21T20:29:52.513Z,60.30
2017-08-21T20:32:20.082Z,60.60
2017-08-21T20:34:47.621Z,60.50
2017-08-21T20:37:17.221Z,60.50
2017-08-21T20:39:45.248Z,60.50
2017-08-21T20:42:12.800Z,60.60
2017-08-21T20:44:40.340Z,61.00
2017-08-21T20:47:08.029Z,61.20
2017-08-21T20:49:35.663Z,61.20
2017-08-21T20:52:03.269Z,61.10
2017-08-21T20:54:30.831Z,61.20
2017-08-21T20:56:58.408Z,61.50
2017-08-21T20:59:25.956Z,61.50
2017-08-21T21:01:53.630Z,61.90
2017-08-21T21:04:22.099Z,62.30
2017-08-21T21:06:49.645Z,62.30
2017-08-21T21:09:17.645Z,62.80
2017-08-21T21:11:45.950Z,61.80
2017-08-21T21:14:14.573Z,61.80
2017-08-21T21:16:42.147Z,62.00
2017-08-21T21:19:09.687Z,62.40
2017-08-21T21:21:37.279Z,62.80
2017-08-21T21:24:05.325Z,62.70
2017-08-21T21:26:32.885Z,62.90
2017-08-21T21:29:00.434Z,63.00
2017-08-21T21:31:28.005Z,63.40
2017-08-21T21:33:55.742Z,63.60
2017-08-21T21:36:23.276Z,63.70
2017-08-21T21:38:50.846Z,64.50
2017-08-21T21:41:18.457Z,65.20
2017-08-21T21:43:45.993Z,64.50
2017-08-21T21:46:15.066Z,64.60
2017-08-21T21:48:42.645Z,64.50
2017-08-21T21:51:10.207Z,64.40
2017-08-21T21:53:37.837Z,64.20
2017-08-21T21:56:05.425Z,64.50
2017-08-21T21:58:32.966Z,64.60
2017-08-21T22:01:00.549Z,64.60
2017-08-21T22:03:28.089Z,64.40
2017-08-21T22:05:55.641Z,64.50
2017-08-21T22:08:23.260Z,64.70
2017-08-21T22:10:51.097Z,65.40
2017-08-21T22:13:18.645Z,65.00
2017-08-21T22:15:46.224Z,65.20
2017-08-21T22:18:14.620Z,65.20
2017-08-21T22:20:42.152Z,66.30
2017-08-21T22:23:09.741Z,66.90
2017-08-21T22:25:37.282Z,67.00
2017-08-21T22:28:04.825Z,67.50
2017-08-21T22:30:32.772Z,67.80
2017-08-21T22:33:00.317Z,67.50
2017-08-21T22:35:27.860Z,67.60
2017-08-21T22:37:56.193Z,67.90
2017-08-21T22:40:23.733Z,67.90
2017-08-21T22:42:51.275Z,67.80
2017-08-21T22:45:18.840Z,68.10
2017-08-21T22:47:46.385Z,68.60
2017-08-21T22:50:15.532Z,68.50
2017-08-21T22:52:43.134Z,69.00
2017-08-21T22:55:10.677Z,68.80
2017-08-21T22:57:38.220Z,69.00
2017-08-21T23:00:05.873Z,69.40
2017-08-21T23:02:44.154Z,69.30
2017-08-21T23:05:12.520Z,69.10
2017-08-21T23:07:40.069Z,68.70
2017-08-21T23:10:08.373Z,68.30
2017-08-21T23:12:36.172Z,68.30
2017-08-21T23:15:03.721Z,69.20
2017-08-21T23:17:31.263Z,68.80
2017-08-21T23:19:58.841Z,69.20
2017-08-21T23:22:26.385Z,68.90
2017-08-21T23:24:53.925Z,69.60
2017-08-21T23:27:21.486Z,70.00
2017-08-21T23:29:49.780Z,70.30
2017-08-21T23:32:17.317Z,70.20
2017-08-21T23:34:44.937Z,69.70
2017-08-21T23:37:12.489Z,69.70
2017-08-21T23:39:40.026Z,69.70
2017-08-21T23:42:07.605Z,69.70
2017-08-21T23:44:35.141Z,70.10
2017-08-21T23:47:02.678Z,71.00
2017-08-21T23:49:30.267Z,71.10
2017-08-21T23:51:57.813Z,70.80
2017-08-21T23:54:26.121Z,70.10
2017-08-21T23:56:53.706Z,70.10
2017-08-21T23:59:21.249Z,70.00
